Time;durP1;ratioP1;P1;durP2;ratioP2;P2;SDS_P1;SDS_P2;PMS_P1;PMS_P2;Temp;Humidity;BMP_temperature;BMP_pressure;BME280_temperature;BME280_humidity;BME280_pressure;Samples;Min_cycle;Max_cycle;Signal;HPM_P1;HPM_P2
2023/01/02 00:01:29;;;;;;;17.52;6.75;;;9.80;99.90;;;;;;5091057;28;20410;-75
2023/01/02 00:03:55;;;;;;;18.33;6.80;;;9.70;99.90;;;;;;5094881;28;20402;-75
2023/01/02 00:06:22;;;;;;;18.10;6.30;;;9.80;99.90;;;;;;5093946;28;20398;-75
2023/01/02 00:08:48;;;;;;;17.17;6.57;;;9.80;99.90;;;;;;5093650;28;20489;-75
2023/01/02 00:11:13;;;;;;;17.80;6.75;;;9.80;99.90;;;;;;5090821;28;20490;-75
2023/01/02 00:13:39;;;;;;;16.20;6.37;;;9.80;99.90;;;;;;5091902;28;20489;-75
2023/01/02 00:16:05;;;;;;;19.60;6.67;;;9.80;99.90;;;;;;5093412;28;20914;-75
2023/01/02 00:18:31;;;;;;;20.23;7.00;;;9.80;99.90;;;;;;5092104;28;21052;-75
2023/01/02 00:21:01;;;;;;;17.02;6.93;;;9.80;99.90;;;;;;5090124;28;20485;-75
2023/01/02 00:23:27;;;;;;;19.80;7.28;;;9.80;99.90;;;;;;5088497;28;20531;-75
2023/01/02 00:25:53;;;;;;;17.88;7.80;;;9.80;99.90;;;;;;5087778;28;20489;-75
2023/01/02 00:28:18;;;;;;;19.33;8.47;;;9.80;99.90;;;;;;5091200;28;20406;-75
2023/01/02 00:30:44;;;;;;;19.90;9.05;;;9.80;99.90;;;;;;5092161;28;20406;-75
2023/01/02 00:33:09;;;;;;;19.37;9.00;;;9.90;99.90;;;;;;5071743;28;20923;-75
2023/01/02 00:35:37;;;;;;;21.83;9.68;;;9.90;99.90;;;;;;5091328;28;20421;-75
2023/01/02 00:38:03;;;;;;;19.33;9.48;;;9.90;99.90;;;;;;5091170;28;20939;-75
2023/01/02 00:40:28;;;;;;;23.63;9.98;;;9.90;99.90;;;;;;5092812;28;20402;-75
2023/01/02 00:42:54;;;;;;;22.20;10.33;;;9.90;99.90;;;;;;5088564;28;20442;-75
2023/01/02 00:45:20;;;;;;;21.45;10.55;;;9.90;99.90;;;;;;5091808;28;20432;-75
2023/01/02 00:47:45;;;;;;;22.83;9.87;;;9.90;99.90;;;;;;5094802;28;20394;-75
2023/01/02 00:50:11;;;;;;;21.05;9.70;;;9.90;99.90;;;;;;5092513;28;20414;-75
2023/01/02 00:52:36;;;;;;;21.63;9.80;;;9.90;99.90;;;;;;5094925;28;20413;-75
2023/01/02 00:55:02;;;;;;;25.88;10.90;;;10.00;99.90;;;;;;5092740;28;20422;-76
2023/01/02 00:57:28;;;;;;;27.10;11.60;;;10.00;99.90;;;;;;5092368;28;20437;-75
2023/01/02 00:59:53;;;;;;;25.03;11.60;;;10.00;99.90;;;;;;5091207;28;20454;-75
2023/01/02 01:02:19;;;;;;;27.85;12.27;;;10.00;99.90;;;;;;5094386;28;20406;-75
2023/01/02 01:04:45;;;;;;;30.90;12.50;;;10.00;99.90;;;;;;5088873;28;20834;-75
2023/01/02 01:07:10;;;;;;;31.75;13.23;;;10.00;99.90;;;;;;5096081;28;20402;-75
2023/01/02 01:09:36;;;;;;;27.13;12.87;;;10.00;99.90;;;;;;5091470;28;20406;-75
2023/01/02 01:12:02;;;;;;;29.20;12.90;;;10.10;99.90;;;;;;5088631;28;20841;-75
2023/01/02 01:14:27;;;;;;;28.40;12.77;;;10.10;99.90;;;;;;5089977;28;20418;-75
2023/01/02 01:16:53;;;;;;;33.28;13.43;;;10.10;99.90;;;;;;5090470;28;20433;-75
2023/01/02 01:19:19;;;;;;;27.63;13.27;;;10.10;99.90;;;;;;5090565;28;20455;-75
2023/01/02 01:21:44;;;;;;;33.75;13.80;;;10.10;99.90;;;;;;5090130;28;20405;-75
2023/01/02 01:24:10;;;;;;;29.27;13.07;;;10.20;99.90;;;;;;5091189;28;20477;-75
2023/01/02 01:26:36;;;;;;;31.53;12.70;;;10.20;99.90;;;;;;5091363;28;20416;-75
2023/01/02 01:29:01;;;;;;;29.92;13.10;;;10.20;99.90;;;;;;5090760;28;20499;-75
2023/01/02 01:31:27;;;;;;;33.17;13.27;;;10.20;99.90;;;;;;5090841;28;20401;-75
2023/01/02 01:33:53;;;;;;;31.92;13.13;;;10.20;99.90;;;;;;5090919;28;20425;-75
2023/01/02 01:36:22;;;;;;;33.50;12.93;;;10.20;99.90;;;;;;5089572;28;20421;-75
2023/01/02 01:38:48;;;;;;;31.25;13.13;;;10.20;99.90;;;;;;5091198;28;20397;-75
2023/01/02 01:41:20;;;;;;;32.80;14.18;;;10.20;99.90;;;;;;5091321;28;20402;-75
2023/01/02 01:43:52;;;;;;;38.13;15.02;;;10.20;99.90;;;;;;5090235;28;20406;-75
2023/01/02 01:46:28;;;;;;;39.17;16.33;;;10.30;99.90;;;;;;5079730;28;20410;-75
2023/01/02 01:49:02;;;;;;;41.25;16.05;;;10.30;99.90;;;;;;5091041;28;21084;-74
2023/01/02 01:51:30;;;;;;;41.90;17.17;;;10.20;99.90;;;;;;5089685;28;20418;-75
2023/01/02 01:54:05;;;;;;;46.15;19.20;;;10.30;99.90;;;;;;5091104;28;20439;-75
2023/01/02 01:56:35;;;;;;;51.65;20.27;;;10.30;99.90;;;;;;5089656;28;20418;-75
2023/01/02 01:59:01;;;;;;;48.57;21.30;;;10.30;99.90;;;;;;5086541;28;20419;-75
2023/01/02 02:01:27;;;;;;;51.35;21.35;;;10.30;99.90;;;;;;5090309;28;20408;-74
2023/01/02 02:03:52;;;;;;;51.33;22.17;;;10.30;99.90;;;;;;5092519;28;21082;-74
2023/01/02 02:06:18;;;;;;;51.83;22.33;;;10.30;99.90;;;;;;5090098;28;20405;-75
2023/01/02 02:09:17;;;;;;;57.55;22.80;;;10.30;99.90;;;;;;5091049;28;20409;-75
2023/01/02 02:11:42;;;;;;;51.88;22.67;;;10.30;99.90;;;;;;5088755;28;20411;-75
2023/01/02 02:14:08;;;;;;;56.05;24.17;;;10.30;99.90;;;;;;5090143;28;21322;-75
2023/01/02 02:17:00;;;;;;;56.57;24.03;;;10.30;99.90;;;;;;5090543;28;20428;-75
2023/01/02 02:19:53;;;;;;;52.97;24.92;;;10.30;99.90;;;;;;5073620;28;20414;-74
2023/01/02 02:22:40;;;;;;;50.20;24.07;;;10.40;99.90;;;;;;5088581;28;20489;-75
2023/01/02 02:25:25;;;;;;;51.85;24.55;;;10.40;99.90;;;;;;5089730;28;20772;-74
2023/01/02 02:28:21;;;;;;;54.33;24.73;;;10.40;99.90;;;;;;5096851;28;20408;-75
2023/01/02 02:31:09;;;;;;;55.67;25.15;;;10.50;99.90;;;;;;5095255;28;20409;-74
2023/01/02 02:33:54;;;;;;;53.85;25.08;;;10.40;99.90;;;;;;5086467;28;20496;-74
2023/01/02 02:36:42;;;;;;;50.75;24.08;;;10.50;99.90;;;;;;5089513;28;20433;-75
2023/01/02 02:39:25;;;;;;;55.53;25.05;;;10.50;99.90;;;;;;5093761;28;20761;-75
2023/01/02 02:41:59;;;;;;;53.17;24.77;;;10.50;99.90;;;;;;5087479;28;20410;-74
2023/01/02 02:44:27;;;;;;;46.10;23.52;;;10.60;99.90;;;;;;5089306;28;20402;-74
2023/01/02 02:47:07;;;;;;;47.65;22.50;;;10.50;99.90;;;;;;5094335;28;20560;-74
2023/01/02 02:49:47;;;;;;;49.10;22.83;;;10.60;99.90;;;;;;5073401;28;20438;-76
2023/01/02 02:52:53;;;;;;;45.53;21.65;;;10.60;99.90;;;;;;5090959;28;20413;-74
2023/01/02 02:55:47;;;;;;;41.60;20.48;;;10.60;99.90;;;;;;5081941;28;20429;-74
2023/01/02 02:58:15;;;;;;;40.90;20.85;;;10.60;99.90;;;;;;5085215;28;20434;-74
2023/01/02 03:00:40;;;;;;;41.13;21.05;;;10.60;99.90;;;;;;5091092;28;20402;-74
2023/01/02 03:03:21;;;;;;;41.72;20.02;;;10.70;99.90;;;;;;5090507;28;20388;-74
2023/01/02 03:06:23;;;;;;;38.13;19.77;;;10.70;99.90;;;;;;5091503;28;20437;-75
2023/01/02 03:09:09;;;;;;;39.65;19.10;;;10.70;99.90;;;;;;5070688;28;20410;-75
2023/01/02 03:11:54;;;;;;;37.75;18.60;;;10.70;99.90;;;;;;5088714;28;20422;-75
2023/01/02 03:14:19;;;;;;;33.57;17.43;;;10.70;99.90;;;;;;5089525;28;20410;-75
2023/01/02 03:16:51;;;;;;;30.33;16.70;;;10.70;99.90;;;;;;5089368;28;20456;-75
2023/01/02 03:19:26;;;;;;;29.98;16.13;;;10.70;99.90;;;;;;5090721;28;20823;-75
2023/01/02 03:22:08;;;;;;;31.40;16.40;;;10.70;99.90;;;;;;5080594;28;20414;-75
2023/01/02 03:24:37;;;;;;;30.42;16.92;;;10.70;99.90;;;;;;5090360;28;20405;-75
2023/01/02 03:27:07;;;;;;;35.22;16.58;;;10.80;99.90;;;;;;5072452;28;20413;-74
2023/01/02 03:29:38;;;;;;;33.28;17.38;;;10.80;99.90;;;;;;5071725;28;20451;-74
2023/01/02 03:32:15;;;;;;;31.95;16.05;;;10.80;99.90;;;;;;5090540;28;20437;-74
2023/01/02 03:34:44;;;;;;;30.92;16.55;;;10.80;99.90;;;;;;5088951;28;20451;-74
2023/01/02 03:37:14;;;;;;;34.30;16.45;;;10.80;99.90;;;;;;5088349;28;20418;-74
2023/01/02 03:39:53;;;;;;;33.58;17.08;;;10.80;99.90;;;;;;5088902;28;20406;-74
2023/01/02 03:42:32;;;;;;;30.33;16.55;;;10.80;99.90;;;;;;5089828;28;20424;-73
2023/01/02 03:45:16;;;;;;;33.75;15.88;;;10.80;99.90;;;;;;5088908;28;20471;-73
2023/01/02 03:47:54;;;;;;;30.42;15.98;;;10.80;99.90;;;;;;5088348;28;20410;-74
2023/01/02 03:50:30;;;;;;;32.53;15.50;;;10.80;99.90;;;;;;5088194;28;20409;-73
2023/01/02 03:52:57;;;;;;;32.05;15.57;;;10.80;99.90;;;;;;5089068;28;20939;-73
2023/01/02 03:55:24;;;;;;;30.25;15.73;;;10.90;99.90;;;;;;5089601;28;20407;-74
2023/01/02 03:58:08;;;;;;;31.38;15.35;;;10.90;99.90;;;;;;5089720;28;20422;-73
2023/01/02 04:00:41;;;;;;;31.10;15.63;;;10.90;99.90;;;;;;5088033;28;20402;-74
2023/01/02 04:03:38;;;;;;;31.63;15.93;;;10.90;99.90;;;;;;5090448;28;20927;-74
2023/01/02 04:06:17;;;;;;;32.25;16.05;;;10.90;99.90;;;;;;5086492;28;20404;-73
2023/01/02 04:08:59;;;;;;;29.50;15.68;;;10.90;99.90;;;;;;5088089;28;20411;-74
2023/01/02 04:11:27;;;;;;;31.52;15.32;;;10.90;99.90;;;;;;5090455;28;20513;-73
2023/01/02 04:13:58;;;;;;;29.47;14.77;;;10.90;99.90;;;;;;5088043;28;20904;-74
2023/01/02 04:16:29;;;;;;;30.38;14.90;;;10.90;99.90;;;;;;5087688;28;20505;-74
2023/01/02 04:19:22;;;;;;;28.85;14.93;;;10.90;99.90;;;;;;5089727;28;20485;-74
2023/01/02 04:21:51;;;;;;;29.33;15.40;;;11.00;99.90;;;;;;5089311;28;20456;-74
2023/01/02 04:24:21;;;;;;;31.53;15.67;;;10.90;99.90;;;;;;5090548;28;20810;-73
2023/01/02 04:26:55;;;;;;;31.15;15.25;;;10.90;99.90;;;;;;5087827;28;20524;-74
2023/01/02 04:29:20;;;;;;;31.15;16.00;;;11.00;99.90;;;;;;5089121;28;20437;-73
2023/01/02 04:31:52;;;;;;;31.23;16.15;;;10.90;99.90;;;;;;5089636;28;20421;-74
2023/01/02 04:34:20;;;;;;;29.10;15.60;;;10.90;99.90;;;;;;5087947;28;20469;-74
2023/01/02 04:36:46;;;;;;;30.65;15.65;;;11.00;99.90;;;;;;5071696;28;20506;-73
2023/01/02 04:39:12;;;;;;;29.42;14.93;;;11.00;99.90;;;;;;5089802;28;20398;-73
2023/01/02 04:41:40;;;;;;;26.95;14.25;;;11.00;99.90;;;;;;5088723;28;20954;-74
2023/01/02 04:44:05;;;;;;;26.27;14.87;;;11.00;99.90;;;;;;5088852;28;20406;-74
2023/01/02 04:46:31;;;;;;;28.80;14.83;;;11.00;99.90;;;;;;5070861;28;20402;-74
2023/01/02 04:48:57;;;;;;;25.70;14.95;;;11.00;99.90;;;;;;5070258;28;20402;-73
2023/01/02 04:51:23;;;;;;;26.13;14.97;;;11.00;99.90;;;;;;5070451;28;20497;-74
2023/01/02 04:53:49;;;;;;;27.90;14.82;;;11.00;99.90;;;;;;5089078;28;20412;-74
2023/01/02 04:56:16;;;;;;;28.70;14.90;;;11.00;99.90;;;;;;5086876;28;20424;-73
2023/01/02 04:58:43;;;;;;;29.92;14.93;;;11.00;99.90;;;;;;5088318;28;20405;-74
2023/01/02 05:01:14;;;;;;;31.55;16.10;;;11.10;99.90;;;;;;5093622;28;20487;-74
2023/01/02 05:03:42;;;;;;;28.83;14.67;;;11.10;99.90;;;;;;5087474;28;20413;-74
2023/01/02 05:06:07;;;;;;;30.40;15.68;;;11.00;99.90;;;;;;5092427;28;20420;-73
2023/01/02 05:08:34;;;;;;;32.00;15.07;;;11.00;99.90;;;;;;5091317;28;20405;-73
2023/01/02 05:11:06;;;;;;;32.60;14.87;;;11.10;99.90;;;;;;5093452;28;20735;-73
2023/01/02 05:13:32;;;;;;;30.50;14.20;;;11.10;99.90;;;;;;5075277;28;20437;-73
2023/01/02 05:15:58;;;;;;;28.67;12.95;;;11.10;99.90;;;;;;5093793;28;20442;-73
2023/01/02 05:18:23;;;;;;;24.53;12.83;;;11.10;99.90;;;;;;5093383;28;20489;-73
2023/01/02 05:20:49;;;;;;;28.17;12.77;;;11.10;99.90;;;;;;5080212;28;20411;-74
2023/01/02 05:25:59;;;;;;;24.08;11.35;;;11.10;99.90;;;;;;5089051;28;20411;-73
2023/01/02 05:28:24;;;;;;;24.48;10.82;;;11.10;99.90;;;;;;5098849;28;20768;-73
2023/01/02 05:30:50;;;;;;;19.97;10.60;;;11.10;99.90;;;;;;5086177;28;20458;-73
2023/01/02 05:33:15;;;;;;;21.00;10.85;;;11.10;99.90;;;;;;5082145;28;20406;-73
2023/01/02 05:35:41;;;;;;;24.87;11.23;;;11.10;99.90;;;;;;5086736;28;20409;-73
2023/01/02 05:38:06;;;;;;;21.67;10.88;;;11.10;99.90;;;;;;5087926;28;20968;-73
2023/01/02 05:40:32;;;;;;;27.37;11.77;;;11.10;99.90;;;;;;5086977;28;20483;-73
2023/01/02 05:42:58;;;;;;;21.77;10.93;;;11.10;99.90;;;;;;5087393;28;20400;-73
2023/01/02 05:45:25;;;;;;;25.33;11.40;;;11.10;99.90;;;;;;5088014;28;20477;-73
2023/01/02 05:47:54;;;;;;;24.55;11.82;;;11.10;99.90;;;;;;5088994;28;20394;-73
2023/01/02 05:50:19;;;;;;;28.58;12.38;;;11.10;99.90;;;;;;5087752;28;20459;-74
2023/01/02 05:52:45;;;;;;;27.20;11.67;;;11.10;99.90;;;;;;5090112;28;20758;-73
2023/01/02 05:55:10;;;;;;;30.25;12.20;;;11.10;99.90;;;;;;5087066;28;20485;-73
2023/01/02 05:57:36;;;;;;;36.53;13.13;;;11.10;99.90;;;;;;5087302;28;20432;-74
2023/01/02 06:00:02;;;;;;;37.03;13.70;;;11.10;99.90;;;;;;5086923;28;20923;-73
2023/01/02 06:02:28;;;;;;;27.30;12.63;;;11.10;99.90;;;;;;5086199;28;20408;-73
2023/01/02 06:04:53;;;;;;;36.73;13.87;;;11.10;99.90;;;;;;5086142;28;20737;-73
2023/01/02 06:07:19;;;;;;;30.77;13.38;;;11.10;99.90;;;;;;5070510;28;20414;-73
2023/01/02 06:09:45;;;;;;;33.67;13.83;;;11.10;99.90;;;;;;5089438;28;20402;-73
2023/01/02 06:12:10;;;;;;;27.95;12.73;;;11.10;99.90;;;;;;5072804;28;20440;-73
2023/01/02 06:14:36;;;;;;;34.90;13.53;;;11.10;99.90;;;;;;5086256;28;20406;-73
2023/01/02 06:17:01;;;;;;;41.85;14.05;;;11.10;99.90;;;;;;5089516;28;21239;-73
2023/01/02 06:19:27;;;;;;;29.93;13.30;;;11.10;99.90;;;;;;5087609;28;20430;-74
2023/01/02 06:21:53;;;;;;;31.95;13.68;;;11.10;99.90;;;;;;5089932;28;20420;-74
2023/01/02 06:24:18;;;;;;;27.53;13.10;;;11.00;99.90;;;;;;5088517;28;20398;-74
2023/01/02 06:26:44;;;;;;;29.63;13.00;;;11.10;99.90;;;;;;5089817;28;20809;-73
2023/01/02 06:29:09;;;;;;;23.60;12.03;;;11.10;99.90;;;;;;5093029;28;20390;-73
2023/01/02 06:31:35;;;;;;;23.42;12.00;;;11.10;99.90;;;;;;5094489;28;20765;-73
2023/01/02 06:34:02;;;;;;;26.43;12.80;;;11.10;99.90;;;;;;5095954;28;20970;-73
2023/01/02 06:36:30;;;;;;;25.03;11.50;;;11.10;99.90;;;;;;5094381;28;21247;-73
2023/01/02 06:38:56;;;;;;;28.88;12.20;;;11.10;99.90;;;;;;5096467;28;20447;-73
2023/01/02 06:41:22;;;;;;;19.92;10.23;;;11.10;99.90;;;;;;5088289;28;20406;-73
2023/01/02 06:43:50;;;;;;;18.73;10.27;;;11.10;99.90;;;;;;5097380;28;20407;-73
2023/01/02 06:46:17;;;;;;;22.45;10.23;;;11.10;99.90;;;;;;5095287;28;20472;-73
2023/01/02 06:48:43;;;;;;;19.95;9.65;;;11.10;99.90;;;;;;5089120;28;20414;-73
2023/01/02 06:51:14;;;;;;;20.83;9.87;;;11.10;99.90;;;;;;5095207;28;20409;-73
2023/01/02 06:53:42;;;;;;;23.15;10.27;;;11.20;99.90;;;;;;5095811;28;20413;-73
2023/01/02 06:56:08;;;;;;;22.13;9.68;;;11.20;99.90;;;;;;5098149;28;20484;-73
2023/01/02 06:58:36;;;;;;;22.30;9.70;;;11.20;99.90;;;;;;5095442;28;20405;-73
2023/01/02 07:01:13;;;;;;;20.55;9.68;;;11.20;99.90;;;;;;5086840;28;20771;-72
2023/01/02 07:03:40;;;;;;;12.63;6.45;;;11.20;99.90;;;;;;5088797;28;20417;-72
2023/01/02 07:06:08;;;;;;;10.93;6.32;;;11.10;99.90;;;;;;5088749;28;20479;-72
2023/01/02 07:08:34;;;;;;;9.73;6.20;;;11.10;99.90;;;;;;5087206;28;20501;-72
2023/01/02 07:11:21;;;;;;;8.75;5.95;;;11.10;99.90;;;;;;5082431;28;20900;-73
2023/01/02 07:13:48;;;;;;;9.55;5.90;;;11.10;99.90;;;;;;5092121;28;20414;-73
2023/01/02 07:16:16;;;;;;;8.88;5.93;;;11.10;99.90;;;;;;5090839;28;20437;-73
2023/01/02 07:18:41;;;;;;;9.98;6.70;;;11.00;99.90;;;;;;5091592;28;20417;-73
2023/01/02 07:21:12;;;;;;;10.30;7.17;;;11.00;99.90;;;;;;5091931;28;20398;-73
2023/01/02 07:23:38;;;;;;;11.20;7.38;;;11.00;99.90;;;;;;5093584;28;20761;-73
2023/01/02 07:26:05;;;;;;;13.10;8.35;;;11.00;99.90;;;;;;5092462;28;20409;-73
2023/01/02 07:28:32;;;;;;;10.82;5.53;;;11.00;99.90;;;;;;5093562;28;20427;-73
2023/01/02 07:31:01;;;;;;;9.20;4.05;;;10.90;99.90;;;;;;5091665;28;20423;-73
2023/01/02 07:33:28;;;;;;;9.15;4.00;;;10.70;99.90;;;;;;5094884;28;20770;-74
2023/01/02 07:36:03;;;;;;;9.48;3.92;;;10.40;99.90;;;;;;5104782;28;20930;-73
2023/01/02 07:38:29;;;;;;;10.90;3.92;;;10.20;99.90;;;;;;5091856;28;20831;-73
2023/01/02 07:40:55;;;;;;;9.70;3.58;;;10.00;99.90;;;;;;5075817;28;20462;-73
2023/01/02 07:43:21;;;;;;;12.10;3.70;;;9.90;99.90;;;;;;5091920;28;20965;-73
2023/01/02 07:45:47;;;;;;;7.93;3.53;;;9.80;99.90;;;;;;5075919;28;20402;-73
2023/01/02 07:48:12;;;;;;;6.80;2.63;;;9.70;99.90;;;;;;5095435;28;20923;-73
2023/01/02 07:50:38;;;;;;;7.15;2.70;;;9.60;99.90;;;;;;5091625;28;20402;-73
2023/01/02 07:53:04;;;;;;;6.47;2.13;;;9.60;99.90;;;;;;5098780;28;20409;-73
2023/01/02 07:55:29;;;;;;;5.80;1.97;;;9.50;99.90;;;;;;5089914;28;20398;-73
2023/01/02 07:57:55;;;;;;;4.35;1.80;;;9.50;99.90;;;;;;5096516;28;20506;-73
2023/01/02 08:00:21;;;;;;;7.23;1.80;;;9.40;99.90;;;;;;5090753;28;20410;-73
2023/01/02 08:02:48;;;;;;;6.22;2.00;;;9.40;99.90;;;;;;5090008;28;20402;-73
2023/01/02 08:05:15;;;;;;;6.90;2.80;;;9.30;99.90;;;;;;5088561;28;20432;-73
2023/01/02 08:07:43;;;;;;;7.53;3.50;;;9.30;99.90;;;;;;5088735;28;20485;-73
2023/01/02 08:10:09;;;;;;;8.50;4.32;;;9.20;99.90;;;;;;5088085;28;20398;-73
2023/01/02 08:12:35;;;;;;;7.95;4.20;;;9.10;99.90;;;;;;5088755;28;20851;-72
2023/01/02 08:15:00;;;;;;;8.43;4.00;;;9.10;99.90;;;;;;5088161;28;20409;-73
2023/01/02 08:17:26;;;;;;;7.15;3.40;;;9.10;99.90;;;;;;5090270;28;20905;-73
2023/01/02 08:19:51;;;;;;;7.23;2.77;;;9.10;99.90;;;;;;5088450;28;20406;-73
2023/01/02 08:22:17;;;;;;;5.07;2.50;;;9.00;99.90;;;;;;5087824;28;20398;-73
2023/01/02 08:24:42;;;;;;;6.03;2.60;;;9.00;99.90;;;;;;5088444;28;20398;-73
2023/01/02 08:27:08;;;;;;;5.03;2.63;;;9.00;99.90;;;;;;5088104;28;20450;-73
2023/01/02 08:29:34;;;;;;;6.00;2.50;;;9.00;99.90;;;;;;5088596;28;20908;-73
2023/01/02 08:31:59;;;;;;;7.28;2.70;;;9.00;99.90;;;;;;5092765;28;20421;-73
2023/01/02 08:34:25;;;;;;;7.20;2.40;;;9.00;99.90;;;;;;5087904;28;20513;-73
2023/01/02 08:36:51;;;;;;;6.10;2.10;;;8.90;99.90;;;;;;5071043;28;20440;-73
2023/01/02 08:39:16;;;;;;;4.10;0.90;;;8.90;99.90;;;;;;5087536;28;20429;-73
2023/01/02 08:41:42;;;;;;;2.53;0.93;;;8.90;99.90;;;;;;5087668;28;20459;-73
2023/01/02 08:44:08;;;;;;;6.45;1.13;;;8.80;99.90;;;;;;5087793;28;20511;-73
2023/01/02 08:46:34;;;;;;;5.13;1.27;;;8.80;99.90;;;;;;5086543;28;20414;-73
2023/01/02 08:49:00;;;;;;;3.33;0.82;;;8.80;99.90;;;;;;5089008;28;20904;-73
2023/01/02 08:51:26;;;;;;;4.93;1.00;;;8.80;99.90;;;;;;5082583;28;20406;-73
2023/01/02 08:53:52;;;;;;;3.97;0.85;;;8.70;99.90;;;;;;5071376;28;20418;-73
2023/01/02 08:56:22;;;;;;;4.68;0.95;;;8.70;99.90;;;;;;5088140;28;20489;-73
2023/01/02 08:58:54;;;;;;;3.83;0.88;;;8.80;99.90;;;;;;5082547;28;20741;-73
2023/01/02 09:01:22;;;;;;;3.05;0.75;;;8.80;99.90;;;;;;5086748;28;20414;-73
2023/01/02 09:03:47;;;;;;;3.97;0.93;;;8.70;99.90;;;;;;5088052;28;20445;-73
2023/01/02 09:06:13;;;;;;;4.57;0.93;;;8.70;99.90;;;;;;5092746;28;20437;-73
2023/01/02 09:08:39;;;;;;;3.87;0.80;;;8.70;99.90;;;;;;5088048;28;20390;-73
2023/01/02 09:11:17;;;;;;;3.95;0.85;;;8.70;99.90;;;;;;5090537;28;20397;-73
2023/01/02 09:13:43;;;;;;;4.00;0.77;;;8.70;99.90;;;;;;5071929;28;20402;-73
2023/01/02 09:16:10;;;;;;;6.90;1.00;;;8.70;99.90;;;;;;5088127;28;20485;-74
2023/01/02 09:18:36;;;;;;;4.87;1.27;;;8.70;99.90;;;;;;5086656;28;20410;-73
2023/01/02 09:21:03;;;;;;;7.85;1.42;;;8.70;99.90;;;;;;5088542;28;20405;-73
2023/01/02 09:23:30;;;;;;;5.80;1.45;;;8.70;99.90;;;;;;5086531;28;20407;-73
2023/01/02 09:26:04;;;;;;;5.88;1.60;;;8.70;99.90;;;;;;5087876;28;20401;-73
2023/01/02 09:28:32;;;;;;;4.63;1.33;;;8.70;99.90;;;;;;5086990;28;20497;-73
2023/01/02 09:30:58;;;;;;;6.18;1.38;;;8.70;99.90;;;;;;5077431;28;20402;-73
2023/01/02 09:33:24;;;;;;;5.03;1.40;;;8.70;99.90;;;;;;5090535;28;21124;-73
2023/01/02 09:35:49;;;;;;;5.60;1.30;;;8.70;99.90;;;;;;5069554;28;20440;-73
2023/01/02 09:38:15;;;;;;;4.20;1.10;;;8.70;99.90;;;;;;5086756;28;20935;-73
2023/01/02 09:40:50;;;;;;;4.80;1.17;;;8.80;99.90;;;;;;5086975;28;20406;-74
2023/01/02 09:43:22;;;;;;;5.40;1.27;;;8.80;99.90;;;;;;5086709;28;20410;-74
2023/01/02 09:45:49;;;;;;;5.07;1.30;;;8.80;99.90;;;;;;5086206;28;20836;-74
2023/01/02 09:48:17;;;;;;;6.93;1.42;;;8.80;99.90;;;;;;5087680;28;20438;-74
2023/01/02 09:50:46;;;;;;;4.28;1.20;;;8.80;99.90;;;;;;5087093;28;20412;-74
2023/01/02 09:53:13;;;;;;;7.13;1.33;;;8.90;99.90;;;;;;5086894;28;20495;-73
2023/01/02 09:55:45;;;;;;;7.72;1.15;;;8.90;99.90;;;;;;5088811;28;20398;-75
2023/01/02 09:58:42;;;;;;;5.07;0.77;;;8.90;99.90;;;;;;5084441;28;21030;-74
2023/01/02 10:01:27;;;;;;;3.70;0.88;;;8.90;99.90;;;;;;5088527;28;20460;-74
2023/01/02 10:04:20;;;;;;;3.42;1.08;;;8.90;99.90;;;;;;5087400;28;21487;-74
2023/01/02 10:06:55;;;;;;;3.55;0.80;;;8.90;99.90;;;;;;5065963;28;20898;-74
2023/01/02 10:09:35;;;;;;;3.10;0.95;;;9.00;99.90;;;;;;5088349;28;20410;-74
2023/01/02 10:12:14;;;;;;;4.55;0.85;;;8.90;99.90;;;;;;5087766;28;20754;-74
2023/01/02 10:14:53;;;;;;;6.47;0.90;;;8.90;99.90;;;;;;5092857;28;20406;-74
2023/01/02 10:17:19;;;;;;;3.00;1.10;;;9.00;99.90;;;;;;5085667;28;21052;-74
2023/01/02 10:20:24;;;;;;;3.42;1.10;;;8.90;99.90;;;;;;5086609;28;20413;-74
2023/01/02 10:22:56;;;;;;;4.50;1.40;;;9.00;99.90;;;;;;5094033;28;20472;-74
2023/01/02 10:25:57;;;;;;;3.95;1.20;;;9.10;99.90;;;;;;5087355;28;20409;-74
2023/01/02 10:29:17;;;;;;;4.13;1.40;;;9.00;99.90;;;;;;5053071;28;20413;-74
2023/01/02 10:31:56;;;;;;;3.80;1.27;;;9.10;99.90;;;;;;5022669;28;20505;-74
2023/01/02 10:34:25;;;;;;;5.07;1.80;;;9.10;99.90;;;;;;5078864;28;20815;-74
2023/01/02 10:36:51;;;;;;;5.18;1.77;;;9.10;99.90;;;;;;5087513;28;20419;-74
2023/01/02 10:39:20;;;;;;;3.55;1.30;;;9.10;99.90;;;;;;5087493;28;20405;-73
2023/01/02 10:41:50;;;;;;;3.83;1.50;;;9.20;99.90;;;;;;5087271;28;20410;-74
2023/01/02 10:44:31;;;;;;;5.22;1.67;;;9.20;99.90;;;;;;5088326;28;20408;-73
2023/01/02 10:46:58;;;;;;;3.97;1.80;;;9.20;99.90;;;;;;5089302;28;20969;-74
2023/01/02 10:49:25;;;;;;;3.72;1.63;;;9.10;99.90;;;;;;5091251;28;20510;-73
2023/01/02 10:52:11;;;;;;;5.43;1.88;;;9.10;99.90;;;;;;5090925;28;20402;-73
2023/01/02 10:54:51;;;;;;;4.00;1.67;;;9.10;99.90;;;;;;5073263;28;20425;-73
2023/01/02 10:57:23;;;;;;;4.00;1.58;;;9.10;99.90;;;;;;5091819;28;20780;-74
2023/01/02 10:59:54;;;;;;;3.72;1.55;;;9.10;99.90;;;;;;5090984;28;20447;-74
2023/01/02 11:02:36;;;;;;;4.70;1.65;;;9.10;99.90;;;;;;5088980;28;20429;-73
2023/01/02 11:05:05;;;;;;;3.20;1.33;;;9.10;99.90;;;;;;5081339;28;20404;-74
2023/01/02 11:07:35;;;;;;;4.20;1.15;;;9.00;99.90;;;;;;5090914;28;20887;-74
2023/01/02 11:10:01;;;;;;;2.90;0.90;;;9.10;99.90;;;;;;5091076;28;20397;-74
2023/01/02 11:12:26;;;;;;;3.08;1.15;;;9.10;99.90;;;;;;5089392;28;20741;-74
2023/01/02 11:15:09;;;;;;;3.25;1.00;;;9.10;99.90;;;;;;5090838;28;20415;-74
2023/01/02 11:17:40;;;;;;;3.35;0.90;;;9.10;99.90;;;;;;5087005;28;20445;-74
2023/01/02 11:20:29;;;;;;;4.13;0.90;;;9.20;99.90;;;;;;5073049;28;20404;-74
2023/01/02 11:22:57;;;;;;;4.07;0.95;;;9.20;99.90;;;;;;5092479;28;20406;-74
2023/01/02 11:25:40;;;;;;;4.05;0.70;;;9.20;99.90;;;;;;5097303;28;20400;-74
2023/01/02 11:28:18;;;;;;;3.13;0.85;;;9.20;99.90;;;;;;5092935;28;20464;-74
2023/01/02 11:30:45;;;;;;;2.90;0.60;;;9.30;99.90;;;;;;5094091;28;20399;-73
2023/01/02 11:33:22;;;;;;;2.13;0.50;;;9.20;99.90;;;;;;5096784;28;20883;-74
2023/01/02 11:35:53;;;;;;;2.88;0.70;;;9.20;99.90;;;;;;5096738;28;20493;-73
2023/01/02 11:38:21;;;;;;;4.22;0.73;;;9.30;99.90;;;;;;5095326;28;20525;-74
2023/01/02 11:40:59;;;;;;;2.92;0.82;;;9.30;99.90;;;;;;5090816;28;20491;-74
2023/01/02 11:43:47;;;;;;;2.20;0.83;;;9.40;99.90;;;;;;5093241;28;20496;-74
2023/01/02 11:46:27;;;;;;;2.95;1.23;;;9.40;99.90;;;;;;5096714;28;20449;-74
2023/01/02 11:49:10;;;;;;;3.27;0.97;;;9.50;99.90;;;;;;5093811;28;20411;-74
2023/01/02 11:51:38;;;;;;;3.78;1.20;;;9.50;99.90;;;;;;5101023;28;20411;-74
2023/01/02 11:54:11;;;;;;;5.07;1.35;;;9.50;99.90;;;;;;5076896;28;20394;-74
2023/01/02 11:56:40;;;;;;;3.45;1.02;;;9.50;99.90;;;;;;5093810;28;20428;-74
2023/01/02 11:59:21;;;;;;;5.82;1.33;;;9.50;99.90;;;;;;5096652;28;20741;-74
2023/01/02 12:02:11;;;;;;;4.18;1.13;;;9.50;99.90;;;;;;5081707;28;20417;-74
2023/01/02 12:04:37;;;;;;;4.65;1.00;;;9.50;99.90;;;;;;5090003;28;20544;-74
2023/01/02 12:07:39;;;;;;;6.87;1.40;;;9.40;99.90;;;;;;5091718;28;20432;-74
2023/01/02 12:10:43;;;;;;;5.50;1.20;;;9.50;99.90;;;;;;5065093;28;20489;-74
2023/01/02 12:13:37;;;;;;;3.75;0.85;;;9.60;99.90;;;;;;5083447;28;20493;-74
2023/01/02 12:16:22;;;;;;;4.13;1.00;;;9.60;99.90;;;;;;5088721;28;20968;-74
2023/01/02 12:19:08;;;;;;;4.90;1.10;;;9.60;99.90;;;;;;5094108;28;20473;-74
2023/01/02 12:21:58;;;;;;;5.55;1.20;;;9.60;99.90;;;;;;5087941;28;20485;-74
2023/01/02 12:25:07;;;;;;;3.45;0.95;;;9.60;99.90;;;;;;5078143;28;20421;-74
2023/01/02 12:27:48;;;;;;;4.25;0.90;;;9.60;99.90;;;;;;5088231;28;20493;-74
2023/01/02 12:30:17;;;;;;;4.22;1.13;;;9.70;99.90;;;;;;5070789;28;20489;-74
2023/01/02 12:32:58;;;;;;;5.53;1.10;;;9.80;99.90;;;;;;5088440;28;20410;-74
2023/01/02 12:35:57;;;;;;;4.37;0.90;;;9.70;99.90;;;;;;5085647;28;20425;-74
2023/01/02 12:38:45;;;;;;;4.60;1.00;;;9.80;99.90;;;;;;5089809;28;20919;-74
2023/01/02 12:41:32;;;;;;;4.45;0.80;;;9.80;99.90;;;;;;5089307;28;20977;-74
2023/01/02 12:44:21;;;;;;;4.22;0.80;;;9.70;99.90;;;;;;5090087;28;20456;-74
2023/01/02 12:47:07;;;;;;;5.53;0.97;;;9.60;99.90;;;;;;5088123;28;20410;-73
2023/01/02 12:49:59;;;;;;;5.35;0.77;;;9.60;99.90;;;;;;5087018;28;20410;-74
2023/01/02 12:52:51;;;;;;;6.03;0.70;;;9.50;99.90;;;;;;5090385;28;20424;-74
2023/01/02 12:55:36;;;;;;;6.50;1.25;;;9.50;99.90;;;;;;5080762;28;20459;-74
2023/01/02 12:58:16;;;;;;;6.95;0.73;;;9.40;99.90;;;;;;5070468;28;20505;-74
2023/01/02 13:00:56;;;;;;;8.27;0.77;;;9.40;99.90;;;;;;5089108;28;20410;-74
2023/01/02 13:03:44;;;;;;;9.15;1.45;;;9.40;99.90;;;;;;5078656;28;20438;-74
2023/01/02 13:06:12;;;;;;;7.82;1.27;;;9.50;99.90;;;;;;5088935;28;20539;-74
2023/01/02 13:08:50;;;;;;;7.80;1.20;;;9.40;99.90;;;;;;5088532;28;20413;-73